Time;durP1;ratioP1;P1;durP2;ratioP2;P2;SDS_P1;SDS_P2;PMS_P1;PMS_P2;Temp;Humidity;BMP_temperature;BMP_pressure;BME280_temperature;BME280_humidity;BME280_pressure;Samples;Min_cycle;Max_cycle;Signal;HPM_P1;HPM_P2
2022/07/04 15:24:12;;;;;;;2.10;0.75;;;;;;;;;;5076439;27;20404;-83
2022/07/04 15:26:38;;;;;;;1.50;0.60;;;;;;;;;;5091363;28;20484;-88
2022/07/04 15:29:04;;;;;;;1.30;0.60;;;;;;;;;;5074170;28;20017;-85
2022/07/04 15:31:30;;;;;;;1.20;0.60;;;;;;;;;;5070736;28;20033;-85
2022/07/04 15:33:57;;;;;;;2.40;0.70;;;;;;;;;;5072475;28;20021;-82
2022/07/04 15:36:23;;;;;;;2.58;0.80;;;;;;;;;;5076196;28;20458;-83
2022/07/04 15:38:49;;;;;;;1.58;0.60;;;;;;;;;;5072634;28;20081;-87
2022/07/04 15:41:15;;;;;;;1.30;0.40;;;;;;;;;;5073725;28;20068;-88
2022/07/04 15:43:42;;;;;;;2.30;0.57;;;;;;;;;;5074844;28;20466;-84
2022/07/04 15:46:08;;;;;;;1.95;0.70;;;;;;;;;;5095083;28;20033;-82
2022/07/04 15:48:34;;;;;;;0.98;0.50;;;;;;;;;;5078605;28;20104;-85
2022/07/04 15:51:00;;;;;;;1.27;0.40;;;;;;;;;;5081365;28;20124;-82
2022/07/04 15:53:26;;;;;;;0.60;0.52;;;;;;;;;;5067126;28;20032;-84
2022/07/04 15:55:52;;;;;;;0.93;0.52;;;;;;;;;;5084323;28;20032;-85
2022/07/04 15:58:18;;;;;;;0.55;0.50;;;;;;;;;;5057347;28;20079;-82
2022/07/04 16:00:44;;;;;;;0.60;0.50;;;;;;;;;;5069368;28;20025;-82
2022/07/04 16:03:13;;;;;;;0.93;0.50;;;;;;;;;;5072805;28;20571;-88
2022/07/04 16:05:38;;;;;;;1.13;0.43;;;;;;;;;;5057118;28;20032;-86
2022/07/04 16:08:05;;;;;;;1.02;0.70;;;;;;;;;;5070637;28;20025;-83
2022/07/04 16:10:31;;;;;;;1.67;0.70;;;;;;;;;;5073506;28;20116;-82
2022/07/04 16:12:56;;;;;;;1.05;0.60;;;;;;;;;;5053632;28;20112;-87
2022/07/04 16:15:23;;;;;;;1.15;0.50;;;;;;;;;;5059482;28;20032;-83
2022/07/04 16:17:49;;;;;;;1.58;0.50;;;;;;;;;;5068775;28;20076;-86
2022/07/04 16:20:15;;;;;;;3.00;0.50;;;;;;;;;;5067518;28;20100;-85
2022/07/04 16:22:41;;;;;;;1.85;0.50;;;;;;;;;;5068952;28;20054;-87
2022/07/04 16:25:07;;;;;;;1.92;0.73;;;;;;;;;;5050532;28;21010;-89
2022/07/04 16:27:33;;;;;;;1.48;0.43;;;;;;;;;;5071641;28;20039;-84
2022/07/04 16:29:59;;;;;;;1.05;0.50;;;;;;;;;;5065593;28;20025;-84
2022/07/04 16:32:25;;;;;;;0.95;0.70;;;;;;;;;;5050868;28;20021;-82
2022/07/04 16:34:51;;;;;;;0.70;0.60;;;;;;;;;;5058761;28;20519;-84
2022/07/04 16:37:17;;;;;;;2.17;0.90;;;;;;;;;;5057215;28;20025;-84
2022/07/04 16:39:43;;;;;;;2.10;0.70;;;;;;;;;;5059437;28;20059;-82
2022/07/04 16:42:09;;;;;;;1.35;0.63;;;;;;;;;;5057600;28;20071;-81
2022/07/04 16:44:35;;;;;;;2.30;0.70;;;;;;;;;;5039145;28;20113;-82
2022/07/04 16:47:01;;;;;;;1.23;0.77;;;;;;;;;;5056777;28;20103;-83
2022/07/04 16:49:27;;;;;;;1.08;0.70;;;;;;;;;;5043000;28;20030;-82
2022/07/04 16:51:53;;;;;;;2.15;0.95;;;;;;;;;;5045745;28;20566;-85
2022/07/04 16:54:19;;;;;;;3.55;0.80;;;;;;;;;;5053218;28;20098;-84
2022/07/04 16:56:45;;;;;;;1.08;0.70;;;;;;;;;;5058689;28;20026;-82
2022/07/04 16:59:11;;;;;;;1.15;0.65;;;;;;;;;;5038552;28;20103;-85
2022/07/04 17:01:37;;;;;;;1.70;0.50;;;;;;;;;;5040996;28;20049;-84
2022/07/04 17:04:03;;;;;;;0.82;0.60;;;;;;;;;;5039906;28;20060;-83
2022/07/04 17:06:29;;;;;;;1.75;0.90;;;;;;;;;;5054516;28;20013;-83
2022/07/04 17:08:55;;;;;;;1.25;0.70;;;;;;;;;;5054680;28;20060;-82
2022/07/04 17:11:21;;;;;;;1.17;0.80;;;;;;;;;;5055940;28;20048;-82
2022/07/04 17:13:47;;;;;;;1.83;0.98;;;;;;;;;;5053900;28;20395;-85
2022/07/04 17:16:13;;;;;;;2.45;1.20;;;;;;;;;;5041309;28;20052;-84
2022/07/04 17:18:40;;;;;;;1.90;1.10;;;;;;;;;;5057344;28;20492;-92
2022/07/04 17:21:06;;;;;;;1.48;1.10;;;;;;;;;;5056712;28;20034;-85
2022/07/04 17:23:32;;;;;;;2.35;0.93;;;;;;;;;;5055132;28;20494;-82
2022/07/04 17:25:58;;;;;;;1.00;0.70;;;;;;;;;;5056145;28;20025;-82
2022/07/04 17:28:24;;;;;;;1.40;0.85;;;;;;;;;;5042405;28;20490;-81
2022/07/04 17:30:52;;;;;;;2.05;1.17;;;;;;;;;;5039642;28;20036;-83
2022/07/04 17:33:18;;;;;;;2.65;0.90;;;;;;;;;;5055336;28;20021;-82
2022/07/04 17:35:45;;;;;;;1.85;1.05;;;;;;;;;;5041411;28;20040;-82
2022/07/04 17:38:12;;;;;;;1.30;0.90;;;;;;;;;;5054231;28;20024;-82
2022/07/04 17:40:38;;;;;;;1.23;1.08;;;;;;;;;;5056151;28;20026;-82
2022/07/04 17:43:04;;;;;;;1.55;1.13;;;;;;;;;;5040136;28;20040;-82
2022/07/04 17:45:30;;;;;;;2.03;1.25;;;;;;;;;;5056379;28;20108;-82
2022/07/04 17:47:56;;;;;;;1.35;0.90;;;;;;;;;;5037160;28;20079;-82
2022/07/04 17:50:22;;;;;;;0.88;0.70;;;;;;;;;;5044628;28;20026;-82
2022/07/04 17:52:48;;;;;;;1.50;1.00;;;;;;;;;;5052473;28;20026;-81
2022/07/04 17:55:14;;;;;;;1.52;1.00;;;;;;;;;;5040260;28;20060;-81
2022/07/04 17:57:41;;;;;;;2.10;1.38;;;;;;;;;;5041078;28;20060;-81
2022/07/04 18:00:07;;;;;;;4.10;1.30;;;;;;;;;;5057041;28;20017;-82
2022/07/04 18:02:33;;;;;;;1.50;1.05;;;;;;;;;;5058224;28;20048;-81
2022/07/04 18:04:59;;;;;;;1.50;1.17;;;;;;;;;;5040054;28;20033;-81
2022/07/04 18:07:25;;;;;;;2.80;0.95;;;;;;;;;;5056010;28;20034;-82
2022/07/04 18:09:52;;;;;;;2.75;1.17;;;;;;;;;;5038594;28;20263;-84
2022/07/04 18:12:18;;;;;;;1.70;1.30;;;;;;;;;;5038846;28;20382;-82
2022/07/04 18:14:44;;;;;;;1.83;1.17;;;;;;;;;;5057071;28;20025;-81
2022/07/04 18:17:10;;;;;;;1.55;1.30;;;;;;;;;;5056273;28;20039;-84
2022/07/04 18:19:37;;;;;;;2.67;1.33;;;;;;;;;;5036070;28;20034;-82
2022/07/04 18:22:03;;;;;;;1.83;1.30;;;;;;;;;;5052213;28;20048;-83
2022/07/04 18:24:29;;;;;;;2.40;1.48;;;;;;;;;;5037682;28;20018;-82
2022/07/04 18:26:55;;;;;;;2.75;1.45;;;;;;;;;;5053160;28;20029;-84
2022/07/04 18:29:21;;;;;;;2.92;1.63;;;;;;;;;;5040835;28;20029;-82
2022/07/04 18:31:51;;;;;;;2.15;1.48;;;;;;;;;;5044676;28;20377;-81
2022/07/04 18:34:17;;;;;;;4.30;1.98;;;;;;;;;;5055730;28;20029;-82
2022/07/04 18:36:43;;;;;;;2.50;1.60;;;;;;;;;;5037962;28;20059;-81
2022/07/04 18:39:09;;;;;;;2.55;1.40;;;;;;;;;;5055854;28;20025;-81
2022/07/04 18:44:19;;;;;;;1.80;1.30;;;;;;;;;;5041794;28;20032;-82
2022/07/04 18:46:46;;;;;;;2.38;1.42;;;;;;;;;;5056881;28;20033;-83
2022/07/04 18:49:12;;;;;;;3.20;1.35;;;;;;;;;;5039920;28;20021;-83
2022/07/04 18:51:39;;;;;;;2.33;1.30;;;;;;;;;;5038831;28;20488;-85
2022/07/04 18:54:05;;;;;;;3.42;1.10;;;;;;;;;;5053161;28;20064;-84
2022/07/04 18:56:31;;;;;;;2.33;1.10;;;;;;;;;;5041778;28;20057;-85
2022/07/04 18:58:57;;;;;;;2.83;1.35;;;;;;;;;;5040985;28;20022;-82
2022/07/04 19:01:23;;;;;;;2.17;1.40;;;;;;;;;;5053069;28;20040;-81
2022/07/04 19:03:49;;;;;;;1.48;1.17;;;;;;;;;;5038221;28;20032;-82
2022/07/04 19:06:15;;;;;;;3.30;1.20;;;;;;;;;;5056006;28;20033;-82
2022/07/04 19:08:41;;;;;;;1.65;1.20;;;;;;;;;;5034581;28;20033;-83
2022/07/04 19:11:07;;;;;;;3.33;1.60;;;;;;;;;;5057422;28;20017;-84
2022/07/04 19:13:33;;;;;;;1.80;1.30;;;;;;;;;;5056091;28;20025;-87
2022/07/04 19:15:59;;;;;;;2.50;1.48;;;;;;;;;;5055594;28;20532;-83
2022/07/04 19:18:25;;;;;;;2.30;1.45;;;;;;;;;;5055317;28;20033;-82
2022/07/04 19:20:51;;;;;;;1.70;1.35;;;;;;;;;;5037072;28;20033;-83
2022/07/04 19:23:17;;;;;;;2.53;1.35;;;;;;;;;;5037784;28;20044;-83
2022/07/04 19:25:44;;;;;;;3.47;1.40;;;;;;;;;;5042203;28;20021;-82
2022/07/04 19:28:10;;;;;;;2.50;1.42;;;;;;;;;;5053549;28;20423;-82
2022/07/04 19:30:36;;;;;;;2.58;1.30;;;;;;;;;;5052284;28;20033;-82
2022/07/04 19:33:03;;;;;;;2.60;1.60;;;;;;;;;;5039164;28;20124;-82
2022/07/04 19:35:28;;;;;;;2.72;1.85;;;;;;;;;;5038645;28;20032;-82
2022/07/04 19:37:54;;;;;;;3.97;1.65;;;;;;;;;;5056222;28;20021;-83
2022/07/04 19:40:20;;;;;;;2.83;1.35;;;;;;;;;;5036309;28;20021;-83
2022/07/04 19:42:48;;;;;;;2.42;1.40;;;;;;;;;;5052811;28;20029;-82
2022/07/04 19:45:14;;;;;;;2.90;1.67;;;;;;;;;;5052487;28;20029;-82
2022/07/04 19:47:40;;;;;;;3.83;1.70;;;;;;;;;;5039752;28;20397;-82
2022/07/04 19:50:06;;;;;;;3.67;1.70;;;;;;;;;;5059079;28;20351;-82
2022/07/04 19:52:33;;;;;;;2.25;1.50;;;;;;;;;;5054183;28;20562;-85
2022/07/04 19:55:00;;;;;;;3.22;1.85;;;;;;;;;;5055672;28;20030;-82
2022/07/04 19:57:26;;;;;;;2.78;1.40;;;;;;;;;;5051841;28;20029;-84
2022/07/04 19:59:52;;;;;;;1.98;1.30;;;;;;;;;;5057194;28;20025;-82
2022/07/04 20:02:18;;;;;;;2.45;1.30;;;;;;;;;;5050957;28;20034;-82
2022/07/04 20:04:44;;;;;;;3.10;1.35;;;;;;;;;;5053356;28;20025;-84
2022/07/04 20:07:10;;;;;;;2.70;1.38;;;;;;;;;;5034672;28;20026;-81
2022/07/04 20:09:36;;;;;;;4.70;1.50;;;;;;;;;;5036314;28;20033;-82
2022/07/04 20:12:03;;;;;;;2.10;1.20;;;;;;;;;;5043872;28;20109;-82
2022/07/04 20:14:29;;;;;;;2.70;1.48;;;;;;;;;;5041396;28;20044;-82
2022/07/04 20:16:55;;;;;;;1.77;1.25;;;;;;;;;;5056918;28;20022;-85
2022/07/04 20:19:21;;;;;;;2.42;1.40;;;;;;;;;;5042511;28;20048;-83
2022/07/04 20:21:47;;;;;;;2.63;1.50;;;;;;;;;;5041401;28;20080;-82
2022/07/04 20:24:13;;;;;;;3.47;1.45;;;;;;;;;;5040749;28;20095;-86
2022/07/04 20:26:39;;;;;;;3.00;1.48;;;;;;;;;;5037959;28;20030;-84
2022/07/04 20:29:05;;;;;;;4.50;1.70;;;;;;;;;;5056554;28;20037;-82
2022/07/04 20:31:32;;;;;;;3.05;1.48;;;;;;;;;;5059859;28;20043;-82
2022/07/04 20:33:59;;;;;;;3.55;1.60;;;;;;;;;;5042740;28;20042;-84
2022/07/04 20:36:25;;;;;;;3.75;1.30;;;;;;;;;;5058048;28;20020;-81
2022/07/04 20:38:51;;;;;;;3.38;1.45;;;;;;;;;;5042220;28;20033;-86
2022/07/04 20:41:17;;;;;;;3.55;1.42;;;;;;;;;;5037188;28;20026;-86
2022/07/04 20:43:43;;;;;;;4.43;1.75;;;;;;;;;;5041048;28;20701;-83
2022/07/04 20:46:09;;;;;;;3.50;1.73;;;;;;;;;;5035154;28;20036;-85
2022/07/04 20:48:36;;;;;;;3.80;1.40;;;;;;;;;;5038717;28;20445;-84
2022/07/04 20:51:02;;;;;;;2.20;1.63;;;;;;;;;;5055620;28;20025;-84
2022/07/04 20:53:28;;;;;;;3.85;1.80;;;;;;;;;;5054223;28;20032;-82
2022/07/04 20:55:54;;;;;;;3.20;1.60;;;;;;;;;;5038657;28;20120;-85
2022/07/04 20:58:19;;;;;;;2.55;1.38;;;;;;;;;;5040427;28;20113;-85
2022/07/04 21:00:46;;;;;;;3.22;1.45;;;;;;;;;;5052768;28;20032;-82
2022/07/04 21:03:12;;;;;;;3.25;1.40;;;;;;;;;;5038028;28;20041;-84
2022/07/04 21:05:38;;;;;;;2.00;1.63;;;;;;;;;;5059142;28;20057;-83
2022/07/04 21:08:04;;;;;;;1.77;1.30;;;;;;;;;;5055768;28;20055;-83
2022/07/04 21:10:30;;;;;;;2.17;1.25;;;;;;;;;;5053305;28;20463;-83
2022/07/04 21:12:56;;;;;;;1.20;1.10;;;;;;;;;;5052752;28;20057;-86
2022/07/04 21:15:23;;;;;;;3.35;1.40;;;;;;;;;;5042671;28;20468;-84
2022/07/04 21:17:50;;;;;;;2.47;1.85;;;;;;;;;;5043233;28;20029;-82
2022/07/04 21:20:17;;;;;;;6.57;4.40;;;;;;;;;;5039896;28;20026;-82
2022/07/04 21:22:43;;;;;;;6.00;4.25;;;;;;;;;;5060619;28;20045;-84
2022/07/04 21:25:10;;;;;;;5.97;3.40;;;;;;;;;;5037839;28;20493;-82
2022/07/04 21:27:35;;;;;;;3.85;2.53;;;;;;;;;;5040910;28;20021;-82
2022/07/04 21:30:01;;;;;;;3.40;2.10;;;;;;;;;;5037495;28;20505;-83
2022/07/04 21:32:27;;;;;;;4.00;2.33;;;;;;;;;;5044456;28;20611;-82
2022/07/04 21:34:53;;;;;;;3.97;2.25;;;;;;;;;;5036795;28;20176;-85
2022/07/04 21:37:19;;;;;;;6.80;2.22;;;;;;;;;;5037811;28;20538;-83
2022/07/04 21:39:45;;;;;;;2.30;2.03;;;;;;;;;;5056026;28;20108;-84
2022/07/04 21:42:11;;;;;;;3.13;2.25;;;;;;;;;;5050023;28;20033;-83
2022/07/04 21:44:37;;;;;;;3.85;2.30;;;;;;;;;;5036067;28;20033;-83
2022/07/04 21:47:03;;;;;;;2.55;2.33;;;;;;;;;;5037572;28;20051;-82
2022/07/04 21:49:29;;;;;;;2.60;1.95;;;;;;;;;;5040530;28;20052;-83
2022/07/04 21:51:55;;;;;;;3.38;2.08;;;;;;;;;;5055538;28;20045;-83
2022/07/04 21:54:21;;;;;;;2.72;1.95;;;;;;;;;;5055827;28;20032;-82
2022/07/04 21:56:47;;;;;;;3.40;1.88;;;;;;;;;;5041093;28;20017;-82
2022/07/04 21:59:13;;;;;;;2.72;2.03;;;;;;;;;;5049966;28;20117;-82
2022/07/04 22:01:39;;;;;;;2.33;2.13;;;;;;;;;;5053080;28;20463;-83
2022/07/04 22:04:06;;;;;;;3.40;2.20;;;;;;;;;;5054840;28;20037;-82
2022/07/04 22:06:32;;;;;;;3.50;2.58;;;;;;;;;;5037316;28;20025;-83
2022/07/04 22:08:58;;;;;;;3.78;2.17;;;;;;;;;;5036545;28;20040;-82
2022/07/04 22:11:24;;;;;;;3.30;2.08;;;;;;;;;;5036434;28;20025;-83
2022/07/04 22:13:50;;;;;;;3.67;2.10;;;;;;;;;;5032582;28;20032;-83
2022/07/04 22:16:16;;;;;;;2.60;2.20;;;;;;;;;;5040655;28;20040;-82
2022/07/04 22:18:42;;;;;;;2.80;1.85;;;;;;;;;;5039896;28;20086;-83
2022/07/04 22:21:08;;;;;;;3.40;2.05;;;;;;;;;;5032773;28;20023;-82
2022/07/04 22:23:33;;;;;;;2.75;1.80;;;;;;;;;;5038161;28;20044;-81
2022/07/04 22:25:59;;;;;;;4.57;2.10;;;;;;;;;;5057741;28;20071;-85
2022/07/04 22:28:26;;;;;;;5.35;2.42;;;;;;;;;;5055544;28;20032;-82
2022/07/04 22:30:52;;;;;;;3.33;1.90;;;;;;;;;;5035341;28;20402;-83
2022/07/04 22:33:17;;;;;;;1.90;1.70;;;;;;;;;;5038954;28;20025;-82
2022/07/04 22:35:43;;;;;;;3.53;1.63;;;;;;;;;;5034384;28;20124;-82
2022/07/04 22:38:09;;;;;;;4.47;2.08;;;;;;;;;;5055054;28;20175;-82
2022/07/04 22:40:35;;;;;;;3.85;1.90;;;;;;;;;;5052218;28;20029;-81
2022/07/04 22:43:01;;;;;;;2.13;1.70;;;;;;;;;;5055345;28;20030;-83
2022/07/04 22:45:27;;;;;;;2.25;1.50;;;;;;;;;;5056437;28;20071;-81
2022/07/04 22:47:53;;;;;;;2.40;1.80;;;;;;;;;;5038408;28;20112;-83
2022/07/04 22:50:19;;;;;;;2.15;1.70;;;;;;;;;;5052663;28;20026;-82
2022/07/04 22:52:45;;;;;;;2.50;1.80;;;;;;;;;;5037606;28;20033;-82
2022/07/04 22:55:11;;;;;;;2.35;1.67;;;;;;;;;;5054948;28;20021;-82
2022/07/04 22:57:38;;;;;;;1.63;1.52;;;;;;;;;;5054432;28;20446;-82
2022/07/04 23:00:05;;;;;;;2.50;1.80;;;;;;;;;;5039382;28;20060;-82
2022/07/04 23:02:31;;;;;;;2.90;2.20;;;;;;;;;;5036627;28;20041;-83
2022/07/04 23:04:57;;;;;;;2.83;1.80;;;;;;;;;;5037569;28;20025;-82
2022/07/04 23:07:23;;;;;;;3.80;2.08;;;;;;;;;;5053114;28;20032;-82
2022/07/04 23:09:50;;;;;;;2.53;1.80;;;;;;;;;;5051634;28;20104;-82
2022/07/04 23:12:16;;;;;;;2.92;1.95;;;;;;;;;;5042118;28;20070;-81
2022/07/04 23:14:42;;;;;;;3.63;1.63;;;;;;;;;;5058370;28;20056;-82
2022/07/04 23:17:08;;;;;;;3.75;2.15;;;;;;;;;;5038334;28;20063;-83
2022/07/04 23:19:34;;;;;;;3.00;2.30;;;;;;;;;;5038490;28;20060;-82
2022/07/04 23:22:01;;;;;;;2.53;1.90;;;;;;;;;;5054696;28;20041;-82
2022/07/04 23:24:27;;;;;;;2.58;2.00;;;;;;;;;;5051056;28;20029;-82
2022/07/04 23:26:53;;;;;;;2.78;2.00;;;;;;;;;;5051613;28;20040;-82
2022/07/04 23:29:19;;;;;;;2.33;2.13;;;;;;;;;;5035612;28;20092;-81
2022/07/04 23:31:45;;;;;;;2.30;2.08;;;;;;;;;;5050385;28;20018;-82
2022/07/04 23:34:11;;;;;;;2.72;2.00;;;;;;;;;;5038249;28;20036;-82
2022/07/04 23:36:37;;;;;;;4.75;1.75;;;;;;;;;;5034756;28;20044;-84
2022/07/04 23:39:03;;;;;;;3.22;2.05;;;;;;;;;;5055085;28;20026;-84
2022/07/04 23:41:30;;;;;;;3.03;1.83;;;;;;;;;;5052833;28;20025;-83
2022/07/04 23:43:56;;;;;;;2.25;2.05;;;;;;;;;;5033659;28;20052;-83
2022/07/04 23:46:22;;;;;;;2.97;2.03;;;;;;;;;;5057355;28;20021;-82
2022/07/04 23:48:49;;;;;;;2.90;2.03;;;;;;;;;;5044247;28;20025;-85
2022/07/04 23:51:14;;;;;;;2.33;2.05;;;;;;;;;;5055542;28;20143;-81
2022/07/04 23:53:41;;;;;;;2.67;2.30;;;;;;;;;;5042892;28;20108;-83
2022/07/04 23:56:07;;;;;;;4.28;2.38;;;;;;;;;;5040426;28;20029;-82
2022/07/04 23:58:33;;;;;;;3.03;1.98;;;;;;;;;;5039164;28;20502;-82
